Time;durP1;ratioP1;P1;durP2;ratioP2;P2;SDS_P1;SDS_P2;PMS_P1;PMS_P2;Temp;Humidity;BMP_temperature;BMP_pressure;BME280_temperature;BME280_humidity;BME280_pressure;Samples;Min_cycle;Max_cycle;Signal;HPM_P1;HPM_P2
2024/02/09 00:00:55;;;;;;;5.67;2.10;;;21.20;54.00;;;;;;5052448;28;20465;-71
2024/02/09 00:03:25;;;;;;;3.67;2.20;;;21.10;53.90;;;;;;5052490;28;20779;-71
2024/02/09 00:05:52;;;;;;;4.83;1.70;;;21.10;53.90;;;;;;5052522;28;20448;-72
2024/02/09 00:08:19;;;;;;;4.80;2.63;;;21.10;53.90;;;;;;5052641;28;20492;-71
2024/02/09 00:10:47;;;;;;;3.10;1.90;;;21.10;53.90;;;;;;5052568;28;20429;-71
2024/02/09 00:13:14;;;;;;;4.33;1.80;;;21.10;53.90;;;;;;5052498;28;20496;-70
2024/02/09 00:15:41;;;;;;;3.40;2.37;;;21.10;53.90;;;;;;5052169;28;20506;-71
2024/02/09 00:18:07;;;;;;;4.03;2.40;;;21.10;53.90;;;;;;5052109;28;20421;-71
2024/02/09 00:20:32;;;;;;;4.00;2.40;;;21.10;53.90;;;;;;5052048;28;20510;-71
2024/02/09 00:22:58;;;;;;;5.33;2.70;;;21.10;53.90;;;;;;5051798;28;20630;-71
2024/02/09 00:25:24;;;;;;;2.70;1.97;;;21.10;53.90;;;;;;5052088;28;20201;-71
2024/02/09 00:27:50;;;;;;;4.23;2.30;;;21.10;53.90;;;;;;5052149;28;20645;-71
2024/02/09 00:30:16;;;;;;;2.43;1.73;;;21.10;53.90;;;;;;5052074;28;20417;-71
2024/02/09 00:32:41;;;;;;;3.43;2.00;;;21.10;54.40;;;;;;5051933;28;20661;-71
2024/02/09 00:35:07;;;;;;;4.27;2.07;;;21.10;53.90;;;;;;5052016;28;20186;-71
2024/02/09 00:37:33;;;;;;;2.87;2.10;;;21.10;53.90;;;;;;5052382;28;20691;-71
2024/02/09 00:39:58;;;;;;;4.33;2.30;;;21.10;53.90;;;;;;5050417;28;20599;-71
2024/02/09 00:42:24;;;;;;;4.97;3.17;;;21.10;53.90;;;;;;5051684;28;20182;-71
2024/02/09 00:44:50;;;;;;;3.37;2.00;;;21.10;53.90;;;;;;5051682;28;20244;-71
2024/02/09 00:47:16;;;;;;;2.70;2.17;;;21.10;53.90;;;;;;5051829;28;20178;-71
2024/02/09 00:49:45;;;;;;;3.60;2.27;;;21.10;53.90;;;;;;5051537;28;20417;-71
2024/02/09 00:52:11;;;;;;;3.17;2.03;;;21.10;54.00;;;;;;5050415;28;20198;-69
2024/02/09 00:54:38;;;;;;;3.00;1.83;;;21.10;53.90;;;;;;5051582;28;20405;-72
2024/02/09 00:57:05;;;;;;;3.17;2.13;;;21.10;53.90;;;;;;5051463;28;20424;-71
2024/02/09 00:59:31;;;;;;;3.53;2.13;;;21.10;53.90;;;;;;5051413;28;20964;-71
2024/02/09 01:01:57;;;;;;;2.80;2.30;;;21.10;54.40;;;;;;5051490;28;20428;-71
2024/02/09 01:04:23;;;;;;;3.23;2.07;;;21.10;53.90;;;;;;5051407;28;20406;-71
2024/02/09 01:06:49;;;;;;;3.40;2.17;;;21.10;53.90;;;;;;5051580;28;20424;-71
2024/02/09 01:09:15;;;;;;;4.27;2.13;;;21.10;53.90;;;;;;5051272;28;20201;-71
2024/02/09 01:11:41;;;;;;;2.70;2.10;;;21.10;53.90;;;;;;5051024;28;20440;-71
2024/02/09 02:46:50;;;;;;;2.33;1.73;;;20.90;53.90;;;;;;5054152;28;20171;-71
2024/02/09 03:05:41;;;;;;;2.67;1.77;;;20.90;53.90;;;;;;5053987;28;20397;-70
2024/02/09 03:08:08;;;;;;;4.00;2.10;;;20.90;54.00;;;;;;5053573;28;20409;-71
2024/02/09 03:10:35;;;;;;;2.23;1.60;;;20.90;53.90;;;;;;5053524;28;20542;-71
2024/02/09 03:13:01;;;;;;;3.13;1.50;;;21.00;54.60;;;;;;5053307;28;20783;-71
2024/02/09 03:15:26;;;;;;;2.20;1.90;;;21.00;54.00;;;;;;5053380;28;20413;-71
2024/02/09 03:17:53;;;;;;;3.70;1.90;;;21.00;54.00;;;;;;5053414;28;20182;-71
2024/02/09 03:20:20;;;;;;;3.53;2.00;;;21.00;54.00;;;;;;5053046;28;20218;-71
2024/02/09 03:22:46;;;;;;;3.20;1.70;;;21.00;54.00;;;;;;5053166;28;20429;-72
2024/02/09 03:25:11;;;;;;;3.07;1.63;;;21.00;53.90;;;;;;5053317;28;20501;-72
2024/02/09 03:27:40;;;;;;;3.00;2.10;;;21.00;54.00;;;;;;5053217;28;20179;-72
2024/02/09 03:30:07;;;;;;;3.30;2.00;;;21.00;54.00;;;;;;5052962;28;20175;-72
2024/02/09 03:32:35;;;;;;;2.60;1.50;;;20.90;53.90;;;;;;5053110;28;20429;-72
2024/02/09 03:35:05;;;;;;;2.50;1.73;;;21.00;53.90;;;;;;5053095;28;20410;-72
2024/02/09 03:37:33;;;;;;;3.30;1.60;;;21.00;53.90;;;;;;5053479;28;20417;-72
2024/02/09 03:40:05;;;;;;;3.33;1.80;;;21.00;53.90;;;;;;5053367;28;20551;-71
2024/02/09 03:42:31;;;;;;;2.20;1.53;;;21.00;53.90;;;;;;5052965;28;20795;-72
2024/02/09 03:44:58;;;;;;;2.60;1.60;;;21.00;53.90;;;;;;5052880;28;20416;-72
2024/02/09 03:47:26;;;;;;;2.77;2.03;;;21.00;54.00;;;;;;5052725;28;20716;-71
2024/02/09 03:49:59;;;;;;;3.50;1.83;;;21.00;54.00;;;;;;5052850;28;20447;-71
2024/02/09 03:52:27;;;;;;;2.17;1.60;;;21.00;53.90;;;;;;5052538;28;20433;-71
2024/02/09 03:54:54;;;;;;;2.53;1.47;;;21.00;53.90;;;;;;5052716;28;20436;-72
2024/02/09 03:57:24;;;;;;;2.50;1.70;;;21.00;54.00;;;;;;5052815;28;20413;-71
2024/02/09 03:59:51;;;;;;;4.10;2.30;;;20.90;53.90;;;;;;5052639;28;20449;-71
2024/02/09 04:02:17;;;;;;;2.17;1.57;;;21.00;53.90;;;;;;5052764;28;20468;-72
2024/02/09 04:04:43;;;;;;;2.00;1.30;;;20.90;53.90;;;;;;5052446;28;20410;-71
2024/02/09 04:07:09;;;;;;;2.33;1.67;;;20.90;53.90;;;;;;5052538;28;20415;-72
2024/02/09 04:09:35;;;;;;;2.73;1.80;;;20.90;53.90;;;;;;5051112;28;20191;-72
2024/02/09 04:12:02;;;;;;;2.27;1.67;;;21.00;53.90;;;;;;5052777;28;20202;-72
2024/02/09 04:14:31;;;;;;;4.10;1.43;;;20.90;53.90;;;;;;5051074;28;20421;-71
2024/02/09 04:16:58;;;;;;;3.53;2.27;;;20.90;53.90;;;;;;5052397;28;20445;-71
2024/02/09 04:19:25;;;;;;;2.70;1.70;;;20.90;53.90;;;;;;5052288;28;21158;-72
2024/02/09 04:21:51;;;;;;;2.43;1.60;;;21.00;53.90;;;;;;5052412;28;21102;-71
2024/02/09 04:24:19;;;;;;;1.70;1.27;;;21.00;53.90;;;;;;5052395;28;20784;-72
2024/02/09 04:26:46;;;;;;;1.77;1.30;;;21.00;53.90;;;;;;5052325;28;20401;-72
2024/02/09 04:29:15;;;;;;;2.90;2.10;;;20.90;53.90;;;;;;5052440;28;20405;-72
2024/02/09 04:31:41;;;;;;;2.27;1.70;;;20.90;53.90;;;;;;5051915;28;20487;-72
2024/02/09 04:34:09;;;;;;;2.60;1.63;;;20.90;53.90;;;;;;5052109;28;20417;-71
2024/02/09 04:36:37;;;;;;;3.33;1.70;;;20.90;53.90;;;;;;5052394;28;20575;-72
2024/02/09 04:39:03;;;;;;;2.57;1.30;;;20.90;53.90;;;;;;5052042;28;20462;-71
2024/02/09 04:41:28;;;;;;;2.80;1.80;;;20.90;53.90;;;;;;5051752;28;20871;-72
2024/02/09 04:43:54;;;;;;;3.10;1.67;;;20.90;53.90;;;;;;5051896;28;20171;-72
2024/02/09 04:46:22;;;;;;;4.80;2.03;;;20.90;53.90;;;;;;5052040;28;20638;-72
2024/02/09 04:48:48;;;;;;;3.03;1.80;;;20.90;53.90;;;;;;5051773;28;20178;-71
2024/02/09 04:51:14;;;;;;;2.03;1.47;;;20.90;53.90;;;;;;5051630;28;20928;-72
2024/02/09 04:53:40;;;;;;;2.03;1.40;;;20.90;53.90;;;;;;5051692;28;20756;-72
2024/02/09 04:56:05;;;;;;;1.50;1.30;;;21.00;53.90;;;;;;5051641;28;20175;-71
2024/02/09 04:58:31;;;;;;;3.70;1.90;;;20.90;53.90;;;;;;5051489;28;20437;-72
2024/02/09 05:00:57;;;;;;;2.23;1.10;;;20.90;53.90;;;;;;5051443;28;20260;-72
2024/02/09 05:03:22;;;;;;;2.40;1.97;;;20.90;53.90;;;;;;5049415;28;20229;-72
2024/02/09 05:05:48;;;;;;;3.03;1.57;;;20.90;53.90;;;;;;5051354;28;20700;-71
2024/02/09 05:08:13;;;;;;;1.70;1.40;;;20.90;53.90;;;;;;5051458;28;20171;-72
2024/02/09 05:10:39;;;;;;;1.77;1.60;;;20.90;53.90;;;;;;5051249;28;20195;-71
2024/02/09 05:13:07;;;;;;;2.63;1.80;;;20.90;53.90;;;;;;5050026;28;20293;-72
2024/02/09 05:15:33;;;;;;;3.03;1.57;;;20.90;53.90;;;;;;5051309;28;20225;-71
2024/02/09 05:17:59;;;;;;;3.27;1.47;;;20.90;53.90;;;;;;5051015;28;20428;-69
2024/02/09 05:20:25;;;;;;;1.93;1.60;;;20.90;53.90;;;;;;5050818;28;20826;-72
2024/02/09 05:22:50;;;;;;;1.73;1.40;;;21.00;54.00;;;;;;5051171;28;20179;-71
2024/02/09 05:25:16;;;;;;;2.87;1.30;;;21.00;54.00;;;;;;5051043;28;20175;-71
2024/02/09 05:27:45;;;;;;;1.60;1.10;;;20.90;53.90;;;;;;5051004;28;20163;-71
2024/02/09 05:30:12;;;;;;;2.13;1.70;;;20.90;53.90;;;;;;5050930;28;20229;-71
2024/02/09 05:32:39;;;;;;;2.20;1.47;;;20.90;53.90;;;;;;5050751;28;20429;-71
2024/02/09 05:35:06;;;;;;;1.93;1.30;;;20.90;53.90;;;;;;5050774;28;20421;-71
2024/02/09 05:37:32;;;;;;;1.93;1.40;;;20.90;53.90;;;;;;5050940;28;20424;-72
2024/02/09 05:39:58;;;;;;;2.00;1.23;;;20.90;53.80;;;;;;5050957;28;20461;-71
2024/02/09 05:42:23;;;;;;;2.00;1.47;;;20.90;53.80;;;;;;5050745;28;20786;-73
2024/02/09 05:44:49;;;;;;;2.10;1.40;;;21.00;53.90;;;;;;5050830;28;20326;-71
2024/02/09 05:47:15;;;;;;;2.33;1.67;;;20.90;53.80;;;;;;5050674;28;20175;-72
2024/02/09 05:49:42;;;;;;;2.13;1.50;;;20.90;53.90;;;;;;5050746;28;20761;-71
2024/02/09 05:52:08;;;;;;;3.10;2.50;;;20.90;53.80;;;;;;5050557;28;20198;-71
2024/02/09 05:54:34;;;;;;;2.50;1.80;;;20.90;53.80;;;;;;5051278;28;20413;-71
2024/02/09 05:57:00;;;;;;;1.73;1.23;;;20.90;53.80;;;;;;5051005;28;20436;-70
2024/02/09 05:59:26;;;;;;;3.37;1.50;;;20.90;53.80;;;;;;5050787;28;20194;-71
2024/02/09 06:01:52;;;;;;;1.40;1.10;;;20.90;53.90;;;;;;5050661;28;20462;-72
2024/02/09 06:04:18;;;;;;;1.87;1.67;;;20.90;53.80;;;;;;5049374;28;20552;-71
2024/02/09 06:06:46;;;;;;;2.03;1.30;;;20.90;53.80;;;;;;5050558;28;20409;-70
2024/02/09 06:09:12;;;;;;;2.80;1.60;;;20.90;53.80;;;;;;5050527;28;20225;-70
2024/02/09 06:11:38;;;;;;;3.10;1.60;;;20.90;53.90;;;;;;5052511;28;20425;-73
2024/02/09 06:14:03;;;;;;;3.00;1.50;;;20.90;53.80;;;;;;5050704;28;20173;-71
2024/02/09 06:16:29;;;;;;;2.33;1.70;;;20.90;53.80;;;;;;5050437;28;20544;-71
2024/02/09 06:18:54;;;;;;;2.17;1.40;;;20.90;53.80;;;;;;5050610;28;20179;-71
2024/02/09 06:21:20;;;;;;;1.67;1.30;;;20.90;53.80;;;;;;5050681;28;20206;-72
2024/02/09 06:23:46;;;;;;;3.57;2.03;;;20.90;53.90;;;;;;5051156;28;20700;-72
2024/02/09 06:26:14;;;;;;;2.97;1.40;;;21.00;53.90;;;;;;5050688;28;20877;-72
2024/02/09 06:28:40;;;;;;;2.00;1.30;;;21.00;53.90;;;;;;5050653;28;20401;-72
2024/02/09 06:31:06;;;;;;;2.40;1.50;;;21.00;54.50;;;;;;5050750;28;20445;-72
2024/02/09 06:33:31;;;;;;;1.83;1.30;;;21.00;53.90;;;;;;5050695;28;20413;-71
2024/02/09 06:35:58;;;;;;;3.50;1.60;;;21.00;53.90;;;;;;5050750;28;20199;-71
2024/02/09 06:38:24;;;;;;;2.43;1.50;;;21.00;53.90;;;;;;5050621;28;20174;-70
2024/02/09 06:40:53;;;;;;;2.30;1.43;;;21.00;53.90;;;;;;5050580;28;20469;-72
2024/02/09 06:43:19;;;;;;;1.87;1.20;;;21.10;54.00;;;;;;5050687;28;20167;-71
2024/02/09 06:45:45;;;;;;;2.10;1.80;;;21.10;54.00;;;;;;5050529;28;20406;-71
2024/02/09 06:48:11;;;;;;;1.37;1.27;;;21.10;53.90;;;;;;5050578;28;20409;-71
2024/02/09 06:50:36;;;;;;;2.63;1.80;;;21.10;53.90;;;;;;5050439;28;20228;-71
2024/02/09 06:53:06;;;;;;;2.70;1.73;;;21.10;53.90;;;;;;5050845;28;20179;-70
2024/02/09 06:55:39;;;;;;;2.30;1.57;;;21.10;53.90;;;;;;5050733;28;20167;-71
2024/02/09 06:58:04;;;;;;;2.73;1.40;;;21.10;53.90;;;;;;5049451;28;20526;-72
2024/02/09 07:00:32;;;;;;;2.67;1.40;;;21.10;53.90;;;;;;5050810;28;20457;-71
2024/02/09 07:02:58;;;;;;;2.43;1.33;;;21.20;53.90;;;;;;5050829;28;20658;-70
2024/02/09 07:05:24;;;;;;;3.27;1.93;;;21.20;53.90;;;;;;5050712;28;20606;-71
2024/02/09 07:07:52;;;;;;;2.60;1.43;;;21.20;53.90;;;;;;5050621;28;20310;-72
2024/02/09 07:10:22;;;;;;;2.23;1.60;;;21.20;53.90;;;;;;5050600;28;20173;-70
2024/02/09 07:12:49;;;;;;;2.63;1.63;;;21.20;53.90;;;;;;5050541;28;21209;-70
2024/02/09 07:15:16;;;;;;;2.00;1.60;;;21.20;53.90;;;;;;5050581;28;20483;-71
2024/02/09 07:17:45;;;;;;;2.13;1.30;;;21.20;53.90;;;;;;5050661;28;20417;-71
2024/02/09 07:20:16;;;;;;;2.87;1.27;;;21.20;53.90;;;;;;5050418;28;20838;-72
2024/02/09 07:22:42;;;;;;;2.37;1.43;;;21.20;53.90;;;;;;5050614;28;20418;-72
2024/02/09 07:25:08;;;;;;;4.40;1.20;;;21.20;53.90;;;;;;5049467;28;20444;-71
2024/02/09 07:27:33;;;;;;;1.73;1.43;;;21.20;53.90;;;;;;5052128;28;20409;-71
2024/02/09 07:29:59;;;;;;;2.33;1.60;;;21.30;54.00;;;;;;5054157;28;20262;-71
2024/02/09 07:32:25;;;;;;;2.93;1.70;;;21.20;53.90;;;;;;5054019;28;20565;-70
2024/02/09 07:34:52;;;;;;;4.27;1.60;;;21.30;54.00;;;;;;5054036;28;20209;-71
2024/02/09 07:37:21;;;;;;;2.70;1.80;;;21.30;54.00;;;;;;5054015;28;20175;-71
2024/02/09 07:39:47;;;;;;;2.20;1.30;;;21.30;54.00;;;;;;5053942;28;20981;-72
2024/02/09 07:42:12;;;;;;;3.40;1.70;;;21.30;54.00;;;;;;5053572;28;20436;-70
2024/02/09 07:44:39;;;;;;;1.97;1.30;;;21.30;54.00;;;;;;5054096;28;20178;-71
2024/02/09 07:47:05;;;;;;;2.00;1.40;;;21.30;54.10;;;;;;5053862;28;20175;-71
2024/02/09 07:49:33;;;;;;;1.97;1.37;;;21.30;54.00;;;;;;5053964;28;20886;-72
2024/02/09 07:52:03;;;;;;;2.20;1.50;;;21.30;54.10;;;;;;5053749;28;20426;-72
2024/02/09 07:54:31;;;;;;;2.00;1.40;;;21.30;54.10;;;;;;5053866;28;20830;-71
2024/02/09 07:56:57;;;;;;;1.43;1.13;;;21.30;54.00;;;;;;5053562;28;20412;-71
2024/02/09 07:59:26;;;;;;;1.90;1.43;;;21.30;54.60;;;;;;5053526;28;20421;-71
2024/02/09 08:01:52;;;;;;;1.90;1.23;;;21.30;54.00;;;;;;5053597;28;20436;-70
2024/02/09 08:04:19;;;;;;;3.37;1.73;;;21.30;54.00;;;;;;5053931;28;20904;-71
2024/02/09 08:06:45;;;;;;;2.07;1.20;;;21.30;54.00;;;;;;5053395;28;20405;-72
2024/02/09 08:09:10;;;;;;;2.70;1.73;;;21.30;54.00;;;;;;5053311;28;20401;-72
2024/02/09 08:11:41;;;;;;;3.97;1.50;;;21.30;54.00;;;;;;5053385;28;20588;-72
2024/02/09 08:14:07;;;;;;;2.33;1.60;;;21.30;54.00;;;;;;5053356;28;20389;-73
2024/02/09 08:16:33;;;;;;;2.00;1.20;;;21.30;54.00;;;;;;5053292;28;20436;-71
2024/02/09 08:18:59;;;;;;;2.77;1.37;;;21.30;54.00;;;;;;5053204;28;20903;-72
2024/02/09 08:21:25;;;;;;;3.07;1.43;;;21.30;54.00;;;;;;5053042;28;20259;-72
2024/02/09 08:23:50;;;;;;;2.30;1.33;;;21.30;54.00;;;;;;5053200;28;20174;-71
2024/02/09 08:26:16;;;;;;;3.97;1.90;;;21.30;54.00;;;;;;5053056;28;20622;-71
2024/02/09 08:28:47;;;;;;;3.20;1.57;;;21.30;54.00;;;;;;5053063;28;20186;-72
2024/02/09 08:31:16;;;;;;;4.30;1.33;;;21.30;54.00;;;;;;5053000;28;20198;-71
2024/02/09 08:33:51;;;;;;;3.23;1.90;;;21.30;54.00;;;;;;5051539;28;20421;-71
2024/02/09 08:36:21;;;;;;;3.50;1.67;;;21.30;54.10;;;;;;5053116;28;20401;-72
2024/02/09 08:38:47;;;;;;;3.10;1.67;;;21.30;54.00;;;;;;5052627;28;20468;-71
2024/02/09 08:41:12;;;;;;;2.53;1.60;;;21.30;54.10;;;;;;5052988;28;20891;-72
2024/02/09 08:43:41;;;;;;;4.37;1.90;;;21.30;54.10;;;;;;5051452;28;20175;-70
2024/02/09 08:46:07;;;;;;;2.53;1.80;;;21.30;54.10;;;;;;5052584;28;20653;-72
2024/02/09 08:48:33;;;;;;;3.27;1.97;;;21.30;54.10;;;;;;5052685;28;20413;-72
2024/02/09 08:50:59;;;;;;;4.00;2.23;;;21.30;54.10;;;;;;5052513;28;20515;-72
2024/02/09 08:53:24;;;;;;;4.30;2.10;;;21.30;54.10;;;;;;5053030;28;20202;-70
2024/02/09 08:55:50;;;;;;;3.87;1.53;;;21.30;54.10;;;;;;5051077;28;20182;-71
2024/02/09 08:58:19;;;;;;;4.10;2.13;;;21.30;54.10;;;;;;5052592;28;20237;-72
2024/02/09 09:00:45;;;;;;;4.10;2.17;;;21.30;54.10;;;;;;5052282;28;20641;-72
2024/02/09 09:03:11;;;;;;;3.60;1.80;;;21.30;54.20;;;;;;5052728;28;20475;-72
2024/02/09 09:05:36;;;;;;;3.87;1.90;;;21.30;54.10;;;;;;5052292;28;20410;-72
2024/02/09 09:08:03;;;;;;;2.70;1.83;;;21.30;54.20;;;;;;5052617;28;20633;-72
2024/02/09 09:10:28;;;;;;;2.63;1.70;;;21.30;54.10;;;;;;5052388;28;20171;-71
2024/02/09 09:12:54;;;;;;;4.73;2.97;;;21.30;54.10;;;;;;5052269;28;20908;-71
2024/02/09 09:15:20;;;;;;;2.57;1.97;;;21.30;54.20;;;;;;5052120;28;20648;-69
2024/02/09 09:17:48;;;;;;;3.57;1.87;;;21.30;54.20;;;;;;5052116;28;20171;-71
2024/02/09 09:20:14;;;;;;;2.27;1.57;;;21.30;54.20;;;;;;5051837;28;20465;-72
2024/02/09 09:22:41;;;;;;;3.30;1.97;;;21.30;54.20;;;;;;5051978;28;20430;-72
2024/02/09 09:25:07;;;;;;;8.10;2.87;;;21.30;54.20;;;;;;5052274;28;20571;-70
2024/02/09 09:27:35;;;;;;;3.97;1.80;;;21.30;54.70;;;;;;5051846;28;20896;-71
2024/02/09 09:30:04;;;;;;;4.07;2.30;;;21.30;54.20;;;;;;5051547;28;20421;-71
2024/02/09 09:32:32;;;;;;;3.70;1.80;;;21.30;54.20;;;;;;5051930;28;20438;-71
2024/02/09 09:34:58;;;;;;;2.73;1.90;;;21.30;54.20;;;;;;5051798;28;20424;-72
2024/02/09 09:37:23;;;;;;;3.13;2.00;;;21.30;54.20;;;;;;5051712;28;20413;-71
2024/02/09 09:39:49;;;;;;;3.77;2.03;;;21.30;54.20;;;;;;5051984;28;20503;-71
2024/02/09 09:42:14;;;;;;;4.00;2.57;;;21.30;54.20;;;;;;5051759;28;20191;-71
2024/02/09 09:44:41;;;;;;;3.50;2.30;;;21.30;54.20;;;;;;5051433;28;20659;-71
2024/02/09 09:47:09;;;;;;;5.83;2.80;;;21.30;54.20;;;;;;5051527;28;20574;-71
2024/02/09 09:49:39;;;;;;;3.80;2.00;;;21.30;54.30;;;;;;5050939;28;20422;-71
2024/02/09 09:52:19;;;;;;;3.90;2.67;;;21.30;54.30;;;;;;5051393;28;20421;-69
2024/02/09 09:54:45;;;;;;;4.00;2.37;;;21.30;54.30;;;;;;5051480;28;20973;-70
2024/02/09 09:57:11;;;;;;;3.70;2.20;;;21.30;54.30;;;;;;5051191;28;20402;-71
2024/02/09 09:59:37;;;;;;;2.77;1.70;;;21.30;54.30;;;;;;5050935;28;20460;-71
2024/02/09 10:02:05;;;;;;;3.20;2.20;;;21.30;54.30;;;;;;5050964;28;20536;-70
2024/02/09 10:04:31;;;;;;;2.70;2.10;;;21.30;54.30;;;;;;5049566;28;20413;-71
2024/02/09 10:06:59;;;;;;;4.50;2.50;;;21.30;54.30;;;;;;5051146;28;20952;-72
2024/02/09 10:09:24;;;;;;;3.50;2.07;;;21.30;54.30;;;;;;5051106;28;20175;-70
2024/02/09 10:11:51;;;;;;;5.50;2.00;;;21.30;54.30;;;;;;5051057;28;20973;-71
2024/02/09 10:14:20;;;;;;;3.50;1.90;;;21.30;54.30;;;;;;5051103;28;20197;-71
2024/02/09 10:16:46;;;;;;;5.00;2.27;;;21.30;54.30;;;;;;5051012;28;20401;-71
2024/02/09 10:19:16;;;;;;;4.50;2.20;;;21.30;54.40;;;;;;5050794;28;20433;-72
2024/02/09 10:21:42;;;;;;;3.80;2.30;;;21.30;54.30;;;;;;5051030;28;20218;-71
2024/02/09 10:24:10;;;;;;;2.40;1.80;;;21.30;54.30;;;;;;5051111;28;20784;-70
2024/02/09 10:26:36;;;;;;;3.70;2.03;;;21.30;54.30;;;;;;5051174;28;20884;-71
2024/02/09 10:29:03;;;;;;;3.80;2.00;;;21.30;54.30;;;;;;5050964;28;20459;-70
2024/02/09 10:31:30;;;;;;;2.97;2.07;;;21.30;54.30;;;;;;5050855;28;20522;-71
2024/02/09 10:33:56;;;;;;;4.13;2.50;;;21.30;54.30;;;;;;5051026;28;20424;-69
2024/02/09 10:36:23;;;;;;;4.93;2.50;;;21.30;54.30;;;;;;5050875;28;20417;-70
2024/02/09 10:38:49;;;;;;;3.50;2.10;;;21.30;54.30;;;;;;5050966;28;20172;-71
2024/02/09 10:41:17;;;;;;;3.00;2.20;;;21.30;54.30;;;;;;5050621;28;20464;-69
2024/02/09 10:43:51;;;;;;;4.70;2.50;;;21.30;54.30;;;;;;5049638;28;20549;-70
2024/02/09 10:46:18;;;;;;;3.50;1.80;;;21.30;54.30;;;;;;5050933;28;20960;-71
2024/02/09 10:48:48;;;;;;;2.70;1.90;;;21.30;54.30;;;;;;5051214;28;20440;-70
2024/02/09 10:51:16;;;;;;;3.97;2.00;;;21.30;54.30;;;;;;5050921;28;20433;-71
2024/02/09 10:54:08;;;;;;;4.97;2.20;;;21.30;54.40;;;;;;5049395;28;20422;-72
2024/02/09 10:56:34;;;;;;;5.60;2.70;;;21.30;54.40;;;;;;5050806;28;20397;-71
2024/02/09 10:59:00;;;;;;;4.57;2.63;;;21.30;54.40;;;;;;5050547;28;21023;-71
2024/02/09 11:01:27;;;;;;;4.37;2.40;;;21.30;54.40;;;;;;5050513;28;20356;-71
2024/02/09 11:03:53;;;;;;;4.87;2.20;;;21.30;54.40;;;;;;5054466;28;20896;-68
2024/02/09 11:06:20;;;;;;;5.60;3.20;;;21.30;54.40;;;;;;5054707;28;20420;-71
2024/02/09 11:08:47;;;;;;;4.17;2.43;;;21.30;55.00;;;;;;5054955;28;20262;-71
2024/02/09 11:11:12;;;;;;;6.20;3.10;;;21.30;54.40;;;;;;5053055;28;20447;-70
2024/02/09 11:13:38;;;;;;;3.27;2.00;;;21.30;54.40;;;;;;5054432;28;20417;-71
2024/02/09 11:16:06;;;;;;;4.90;2.90;;;21.30;54.40;;;;;;5054494;28;20229;-72
2024/02/09 11:18:32;;;;;;;4.20;2.30;;;21.30;54.40;;;;;;5054398;28;20233;-71
2024/02/09 11:21:05;;;;;;;4.17;2.20;;;21.30;54.40;;;;;;5052707;28;20551;-70
2024/02/09 11:23:32;;;;;;;4.13;2.43;;;21.30;54.40;;;;;;5054358;28;20389;-70
2024/02/09 11:25:59;;;;;;;3.80;2.53;;;21.30;54.40;;;;;;5054063;28;20443;-70
2024/02/09 11:28:25;;;;;;;5.13;2.80;;;21.30;54.40;;;;;;5054200;28;20419;-72
2024/02/09 11:30:56;;;;;;;4.93;2.40;;;21.30;54.40;;;;;;5053914;28;20441;-71
2024/02/09 11:33:24;;;;;;;5.40;2.93;;;21.30;54.40;;;;;;5054081;28;20752;-71
2024/02/09 11:35:51;;;;;;;3.70;2.50;;;21.30;54.40;;;;;;5054410;28;20425;-71
2024/02/09 11:38:21;;;;;;;4.40;2.60;;;21.30;54.50;;;;;;5054079;28;20755;-71
2024/02/09 11:40:51;;;;;;;5.70;2.40;;;21.30;54.50;;;;;;5053807;28;20470;-71
2024/02/09 11:43:17;;;;;;;5.77;2.83;;;21.30;54.50;;;;;;5053876;28;20409;-71
2024/02/09 11:45:44;;;;;;;4.70;2.70;;;21.30;54.50;;;;;;5053795;28;20482;-70
2024/02/09 11:48:11;;;;;;;4.33;1.90;;;21.30;54.50;;;;;;5054006;28;20658;-71
2024/02/09 11:50:36;;;;;;;6.90;3.53;;;21.30;54.50;;;;;;5053524;28;20793;-71
2024/02/09 11:53:03;;;;;;;3.60;2.10;;;21.30;54.50;;;;;;5053285;28;20409;-71
2024/02/09 11:55:29;;;;;;;5.77;2.27;;;21.30;54.50;;;;;;5052934;28;20175;-71
2024/02/09 11:57:54;;;;;;;4.93;2.87;;;21.30;54.50;;;;;;5052848;28;20790;-71
2024/02/09 12:00:25;;;;;;;4.33;2.00;;;21.30;54.50;;;;;;5052742;28;20202;-71
2024/02/09 12:02:51;;;;;;;6.60;2.97;;;21.30;54.50;;;;;;5052822;28;20178;-71
2024/02/09 12:05:18;;;;;;;3.90;2.70;;;21.30;54.50;;;;;;5051836;28;20416;-71
2024/02/09 12:07:44;;;;;;;3.93;2.47;;;21.30;54.50;;;;;;5042400;28;20445;-71
2024/02/09 12:10:10;;;;;;;5.10;2.70;;;21.30;54.50;;;;;;5042965;28;20454;-71
2024/02/09 12:12:35;;;;;;;4.67;2.43;;;21.30;54.50;;;;;;5037857;28;20200;-68
2024/02/09 12:15:05;;;;;;;8.10;3.40;;;21.30;54.50;;;;;;5032337;28;20218;-71
2024/02/09 12:17:31;;;;;;;5.77;2.90;;;21.30;54.50;;;;;;5032166;28;20180;-71
2024/02/09 12:20:07;;;;;;;5.87;3.90;;;21.30;54.50;;;;;;5032079;28;20480;-70
2024/02/09 12:22:34;;;;;;;10.23;5.90;;;21.30;54.50;;;;;;5032285;28;20192;-71
2024/02/09 12:25:01;;;;;;;11.00;6.40;;;21.30;54.50;;;;;;5032250;28;20420;-69
2024/02/09 12:27:27;;;;;;;8.53;6.03;;;21.30;54.60;;;;;;5032027;28;20480;-70
2024/02/09 12:29:54;;;;;;;16.03;10.07;;;21.30;54.60;;;;;;5032052;28;20418;-71
2024/02/09 12:32:20;;;;;;;23.77;12.57;;;21.30;54.60;;;;;;5038291;28;20639;-70
2024/02/09 12:34:48;;;;;;;27.90;12.37;;;21.30;54.60;;;;;;5041069;28;20870;-70
2024/02/09 12:37:16;;;;;;;22.33;11.90;;;21.30;54.60;;;;;;5046082;28;20883;-70
2024/02/09 12:39:54;;;;;;;24.63;12.83;;;21.30;54.60;;;;;;5051820;28;20450;-70
2024/02/09 12:42:22;;;;;;;31.90;14.40;;;21.30;54.60;;;;;;5051681;28;20436;-70
2024/02/09 12:44:51;;;;;;;22.03;12.43;;;21.30;54.60;;;;;;5051730;28;20955;-70
2024/02/09 12:47:17;;;;;;;27.83;14.03;;;21.30;54.60;;;;;;5051672;28;20420;-71
2024/02/09 12:49:43;;;;;;;24.27;14.00;;;21.30;54.70;;;;;;5051705;28;20463;-72
2024/02/09 12:52:14;;;;;;;22.63;13.47;;;21.30;54.70;;;;;;5051611;28;20437;-71
2024/02/09 12:54:42;;;;;;;27.80;13.20;;;21.30;54.70;;;;;;5051660;28;20166;-71
2024/02/09 12:57:09;;;;;;;26.73;13.27;;;21.30;54.70;;;;;;5050264;28;20510;-71
2024/02/09 12:59:40;;;;;;;24.67;13.00;;;21.30;54.70;;;;;;5051402;28;20421;-70
2024/02/09 13:02:06;;;;;;;27.70;12.60;;;21.30;54.70;;;;;;5051357;28;20426;-70
2024/02/09 13:04:32;;;;;;;21.60;13.50;;;21.30;54.70;;;;;;5052077;28;20417;-69
2024/02/09 13:06:58;;;;;;;20.20;11.80;;;21.30;54.70;;;;;;5051720;28;20548;-70
2024/02/09 13:09:23;;;;;;;24.67;14.07;;;21.30;54.70;;;;;;5051635;28;20285;-71
2024/02/09 13:11:51;;;;;;;24.67;14.03;;;21.30;54.70;;;;;;5051395;28;20210;-70
2024/02/09 13:14:19;;;;;;;28.17;13.00;;;21.30;54.70;;;;;;5051438;28;20190;-70
2024/02/09 13:16:48;;;;;;;23.60;12.00;;;21.30;54.70;;;;;;5051550;28;20413;-70
2024/02/09 13:19:14;;;;;;;19.73;11.60;;;21.30;54.70;;;;;;5051407;28;20472;-70
2024/02/09 13:21:40;;;;;;;26.20;13.73;;;21.30;54.70;;;;;;5051083;28;20461;-71
2024/02/09 13:24:06;;;;;;;26.60;13.07;;;21.30;54.70;;;;;;5051091;28;20420;-71
2024/02/09 13:26:33;;;;;;;21.60;12.07;;;21.30;54.70;;;;;;5051104;28;20177;-71
2024/02/09 13:29:01;;;;;;;25.40;12.23;;;21.30;54.70;;;;;;5051978;28;20971;-72
2024/02/09 13:31:27;;;;;;;19.17;12.13;;;21.30;54.70;;;;;;5051533;28;20461;-72
2024/02/09 13:33:52;;;;;;;22.23;12.37;;;21.30;54.80;;;;;;5050140;28;20460;-72
2024/02/09 13:36:18;;;;;;;21.57;11.20;;;21.30;54.80;;;;;;5051429;28;20184;-72
2024/02/09 13:38:44;;;;;;;21.60;12.43;;;21.30;54.70;;;;;;5051741;28;20186;-72
2024/02/09 13:41:10;;;;;;;18.23;11.43;;;21.30;54.80;;;;;;5051580;28;20230;-72
2024/02/09 13:43:36;;;;;;;21.60;10.90;;;21.30;54.70;;;;;;5051587;28;20467;-72
2024/02/09 13:46:05;;;;;;;19.20;11.00;;;21.30;54.70;;;;;;5051415;28;20167;-72
2024/02/09 13:48:32;;;;;;;21.37;10.30;;;21.30;54.80;;;;;;5051512;28;20453;-72
2024/02/09 13:50:57;;;;;;;21.50;11.23;;;21.30;54.80;;;;;;5049991;28;20445;-73
2024/02/09 13:53:23;;;;;;;20.43;11.77;;;21.30;54.70;;;;;;5051484;28;20504;-72
2024/02/09 13:55:49;;;;;;;17.67;10.13;;;21.30;54.70;;;;;;5051589;28;20179;-72
2024/02/09 13:58:15;;;;;;;19.93;10.67;;;21.30;54.70;;;;;;5051527;28;20175;-72
2024/02/09 14:00:42;;;;;;;15.97;9.80;;;21.30;54.70;;;;;;5051490;28;20673;-72
2024/02/09 14:03:08;;;;;;;15.47;9.67;;;21.30;54.70;;;;;;5051206;28;20410;-73
2024/02/09 14:05:34;;;;;;;16.67;9.90;;;21.30;54.70;;;;;;5051290;28;20920;-72
2024/02/09 14:07:59;;;;;;;23.17;9.77;;;21.30;54.70;;;;;;5049869;28;20443;-71
2024/02/09 14:10:25;;;;;;;20.47;10.10;;;21.30;54.70;;;;;;5051022;28;20175;-71
2024/02/09 14:12:53;;;;;;;22.47;11.37;;;21.30;54.70;;;;;;5051111;28;20178;-72
2024/02/09 14:15:19;;;;;;;22.33;9.60;;;21.30;54.80;;;;;;5051098;28;20175;-72
2024/02/09 14:17:45;;;;;;;19.90;10.33;;;21.30;54.80;;;;;;5050910;28;20779;-72
2024/02/09 14:20:13;;;;;;;19.20;10.23;;;21.30;54.80;;;;;;5051194;28;20294;-72
2024/02/09 14:22:40;;;;;;;18.80;11.13;;;21.30;54.70;;;;;;5051201;28;20456;-72
2024/02/09 14:25:06;;;;;;;19.90;9.63;;;21.30;54.70;;;;;;5050950;28;20410;-71
2024/02/09 14:27:32;;;;;;;15.60;9.57;;;21.30;54.70;;;;;;5050793;28;20405;-71
2024/02/09 14:29:59;;;;;;;16.57;9.80;;;21.30;54.70;;;;;;5050854;28;20471;-72